Welcome to the New NWS' Forecast!
Most changes are behind the scenes, but click here for differences you might notice.

Terminal Aerodrome Forecast (TAF)

Issued by National Weather Service (NWS)

                            
000
FTUS42 KKEY 151542 AAB
TAFEYW
TAF AMD
KEYW 151542Z 1516/1612 12011KT P6SM VCTS SCT025CB SCT050 SCT250
      TEMPO 1517/1518 14020G30KT 2SM TSRA BKN020CB
     FM151800 13011KT P6SM VCSH SCT025 SCT100 SCT250=